sensor_id;sensor_type;location;lat;lon;timestamp;P1;P2;P0
75187;PMS7003;63762;51.334;22.108;2023-06-22T00:03:42;4;4;3
75187;PMS7003;63762;51.334;22.108;2023-06-22T00:13:49;6;6;3
75187;PMS7003;63762;51.334;22.108;2023-06-22T00:23:56;12;11;8
75187;PMS7003;63762;51.334;22.108;2023-06-22T00:34:03;8;8;7
75187;PMS7003;63762;51.334;22.108;2023-06-22T00:44:11;9;7;5
75187;PMS7003;63762;51.334;22.108;2023-06-22T00:54:18;8;7;5
75187;PMS7003;63762;51.334;22.108;2023-06-22T01:04:34;4;4;3
75187;PMS7003;63762;51.334;22.108;2023-06-22T01:14:41;7;6;5
75187;PMS7003;63762;51.334;22.108;2023-06-22T01:24:55;7;5;4
75187;PMS7003;63762;51.334;22.108;2023-06-22T01:34:57;6;6;4
75187;PMS7003;63762;51.334;22.108;2023-06-22T01:45:00;7;4;3
75187;PMS7003;63762;51.334;22.108;2023-06-22T01:55:03;5;5;3
75187;PMS7003;63762;51.334;22.108;2023-06-22T02:05:08;9;9;5
75187;PMS7003;63762;51.334;22.108;2023-06-22T02:15:15;11;11;6
75187;PMS7003;63762;51.334;22.108;2023-06-22T02:25:22;11;7;5
75187;PMS7003;63762;51.334;22.108;2023-06-22T02:35:29;8;6;4
75187;PMS7003;63762;51.334;22.108;2023-06-22T02:45:36;11;11;7
75187;PMS7003;63762;51.334;22.108;2023-06-22T02:55:43;9;5;4
75187;PMS7003;63762;51.334;22.108;2023-06-22T03:05:50;10;8;6
75187;PMS7003;63762;51.334;22.108;2023-06-22T03:15:57;10;8;5
75187;PMS7003;63762;51.334;22.108;2023-06-22T03:26:05;5;3;2
75187;PMS7003;63762;51.334;22.108;2023-06-22T03:36:12;9;7;4
75187;PMS7003;63762;51.334;22.108;2023-06-22T03:46:19;15;11;8
75187;PMS7003;63762;51.334;22.108;2023-06-22T03:56:26;17;12;9
75187;PMS7003;63762;51.334;22.108;2023-06-22T04:06:33;14;11;8
75187;PMS7003;63762;51.334;22.108;2023-06-22T04:16:40;7;7;4
75187;PMS7003;63762;51.334;22.108;2023-06-22T04:26:47;7;6;4
75187;PMS7003;63762;51.334;22.108;2023-06-22T04:36:55;6;6;4
75187;PMS7003;63762;51.334;22.108;2023-06-22T04:47:02;7;7;6
75187;PMS7003;63762;51.334;22.108;2023-06-22T04:57:09;7;7;6
75187;PMS7003;63762;51.334;22.108;2023-06-22T05:07:16;7;6;4
75187;PMS7003;63762;51.334;22.108;2023-06-22T05:17:23;7;3;3
75187;PMS7003;63762;51.334;22.108;2023-06-22T05:27:30;9;7;3
75187;PMS7003;63762;51.334;22.108;2023-06-22T05:37:37;5;4;3
75187;PMS7003;63762;51.334;22.108;2023-06-22T05:47:45;12;12;5
75187;PMS7003;63762;51.334;22.108;2023-06-22T05:57:51;4;4;3
75187;PMS7003;63762;51.334;22.108;2023-06-22T06:07:59;7;5;4
75187;PMS7003;63762;51.334;22.108;2023-06-22T06:18:06;11;9;7
75187;PMS7003;63762;51.334;22.108;2023-06-22T06:28:13;6;6;4
75187;PMS7003;63762;51.334;22.108;2023-06-22T06:38:20;10;10;6
75187;PMS7003;63762;51.334;22.108;2023-06-22T06:48:27;13;10;8
75187;PMS7003;63762;51.334;22.108;2023-06-22T06:58:34;9;9;7
75187;PMS7003;63762;51.334;22.108;2023-06-22T07:08:41;11;10;8
75187;PMS7003;63762;51.334;22.108;2023-06-22T07:18:48;11;10;7
75187;PMS7003;63762;51.334;22.108;2023-06-22T07:28:55;14;9;6
75187;PMS7003;63762;51.334;22.108;2023-06-22T07:39:03;12;12;7
75187;PMS7003;63762;51.334;22.108;2023-06-22T07:49:10;13;10;7
75187;PMS7003;63762;51.334;22.108;2023-06-22T07:59:17;16;14;11
75187;PMS7003;63762;51.334;22.108;2023-06-22T08:09:24;22;14;9
75187;PMS7003;63762;51.334;22.108;2023-06-22T08:19:31;18;17;11
75187;PMS7003;63762;51.334;22.108;2023-06-22T08:29:38;22;21;14
75187;PMS7003;63762;51.334;22.108;2023-06-22T08:39:45;20;19;13
75187;PMS7003;63762;51.334;22.108;2023-06-22T08:49:53;24;23;17
75187;PMS7003;63762;51.334;22.108;2023-06-22T09:00:00;26;23;14
75187;PMS7003;63762;51.334;22.108;2023-06-22T09:10:07;27;25;14
75187;PMS7003;63762;51.334;22.108;2023-06-22T09:20:14;30;21;13
75187;PMS7003;63762;51.334;22.108;2023-06-22T09:30:21;20;18;13
75187;PMS7003;63762;51.334;22.108;2023-06-22T09:40:28;15;15;11
75187;PMS7003;63762;51.334;22.108;2023-06-22T09:50:35;15;13;10
75187;PMS7003;63762;51.334;22.108;2023-06-22T10:00:42;18;14;10
75187;PMS7003;63762;51.334;22.108;2023-06-22T10:10:49;12;11;7
75187;PMS7003;63762;51.334;22.108;2023-06-22T10:20:56;10;10;6
75187;PMS7003;63762;51.334;22.108;2023-06-22T10:31:04;18;11;9
75187;PMS7003;63762;51.334;22.108;2023-06-22T10:41:11;6;6;5
75187;PMS7003;63762;51.334;22.108;2023-06-22T10:51:18;9;9;5
75187;PMS7003;63762;51.334;22.108;2023-06-22T11:01:25;13;11;9
75187;PMS7003;63762;51.334;22.108;2023-06-22T11:11:32;8;8;5
75187;PMS7003;63762;51.334;22.108;2023-06-22T11:21:39;11;11;9
75187;PMS7003;63762;51.334;22.108;2023-06-22T11:31:46;11;11;9
75187;PMS7003;63762;51.334;22.108;2023-06-22T11:41:53;10;9;7
75187;PMS7003;63762;51.334;22.108;2023-06-22T11:52:01;10;9;4
75187;PMS7003;63762;51.334;22.108;2023-06-22T12:02:09;14;10;7
75187;PMS7003;63762;51.334;22.108;2023-06-22T12:12:15;5;5;2
75187;PMS7003;63762;51.334;22.108;2023-06-22T12:22:22;6;5;4
75187;PMS7003;63762;51.334;22.108;2023-06-22T12:32:29;3;3;2
75187;PMS7003;63762;51.334;22.108;2023-06-22T12:42:36;7;7;5
75187;PMS7003;63762;51.334;22.108;2023-06-22T12:52:44;4;4;2
75187;PMS7003;63762;51.334;22.108;2023-06-22T13:02:50;2;2;1
75187;PMS7003;63762;51.334;22.108;2023-06-22T13:12:57;3;3;1
75187;PMS7003;63762;51.334;22.108;2023-06-22T13:23:05;3;3;1
75187;PMS7003;63762;51.334;22.108;2023-06-22T13:33:12;1;1;0
75187;PMS7003;63762;51.334;22.108;2023-06-22T13:43:19;2;2;1
75187;PMS7003;63762;51.334;22.108;2023-06-22T13:53:26;0;0;0
75187;PMS7003;63762;51.334;22.108;2023-06-22T14:03:33;1;1;0
75187;PMS7003;63762;51.334;22.108;2023-06-22T14:13:40;2;2;1
75187;PMS7003;63762;51.334;22.108;2023-06-22T14:23:47;1;1;0
75187;PMS7003;63762;51.334;22.108;2023-06-22T14:33:54;0;0;0
75187;PMS7003;63762;51.334;22.108;2023-06-22T14:44:01;0;0;0
75187;PMS7003;63762;51.334;22.108;2023-06-22T14:54:09;1;1;0
75187;PMS7003;63762;51.334;22.108;2023-06-22T15:04:16;1;1;0
75187;PMS7003;63762;51.334;22.108;2023-06-22T15:14:23;1;1;0
75187;PMS7003;63762;51.334;22.108;2023-06-22T15:24:30;0;0;0
75187;PMS7003;63762;51.334;22.108;2023-06-22T15:34:37;1;1;1
75187;PMS7003;63762;51.334;22.108;2023-06-22T15:44:44;2;2;1
75187;PMS7003;63762;51.334;22.108;2023-06-22T15:54:52;0;0;0
75187;PMS7003;63762;51.334;22.108;2023-06-22T16:04:58;0;0;0
75187;PMS7003;63762;51.334;22.108;2023-06-22T16:15:06;0;0;0
75187;PMS7003;63762;51.334;22.108;2023-06-22T16:25:13;1;1;0
75187;PMS7003;63762;51.334;22.108;2023-06-22T16:35:20;0;0;0
75187;PMS7003;63762;51.334;22.108;2023-06-22T16:45:27;1;1;1
75187;PMS7003;63762;51.334;22.108;2023-06-22T16:55:34;0;0;0
75187;PMS7003;63762;51.334;22.108;2023-06-22T17:05:41;0;0;0
75187;PMS7003;63762;51.334;22.108;2023-06-22T17:18:57;2;2;2
75187;PMS7003;63762;51.334;22.108;2023-06-22T17:29:08;1;1;0
75187;PMS7003;63762;51.334;22.108;2023-06-22T17:39:12;13;1;1
75187;PMS7003;63762;51.334;22.108;2023-06-22T17:49:19;2;2;1
75187;PMS7003;63762;51.334;22.108;2023-06-22T17:59:28;2;2;1
75187;PMS7003;63762;51.334;22.108;2023-06-22T18:09:33;1;1;1
75187;PMS7003;63762;51.334;22.108;2023-06-22T18:19:40;2;2;1
75187;PMS7003;63762;51.334;22.108;2023-06-22T18:29:48;3;3;2
75187;PMS7003;63762;51.334;22.108;2023-06-22T18:39:54;2;2;2
75187;PMS7003;63762;51.334;22.108;2023-06-22T18:50:05;3;3;2
75187;PMS7003;63762;51.334;22.108;2023-06-22T19:00:09;3;3;2
75187;PMS7003;63762;51.334;22.108;2023-06-22T19:20:25;3;3;2
75187;PMS7003;63762;51.334;22.108;2023-06-22T19:30:36;1;1;0
75187;PMS7003;63762;51.334;22.108;2023-06-22T19:40:38;4;4;3
75187;PMS7003;63762;51.334;22.108;2023-06-22T19:50:44;36;25;16
75187;PMS7003;63762;51.334;22.108;2023-06-22T20:00:55;4;4;3
75187;PMS7003;63762;51.334;22.108;2023-06-22T20:10:58;2;2;2
75187;PMS7003;63762;51.334;22.108;2023-06-22T20:21:09;6;5;3
75187;PMS7003;63762;51.334;22.108;2023-06-22T20:31:13;3;3;2
75187;PMS7003;63762;51.334;22.108;2023-06-22T20:41:20;2;2;2
75187;PMS7003;63762;51.334;22.108;2023-06-22T20:51:27;4;4;3
75187;PMS7003;63762;51.334;22.108;2023-06-22T21:01:34;2;2;1
75187;PMS7003;63762;51.334;22.108;2023-06-22T21:11:41;2;2;2
75187;PMS7003;63762;51.334;22.108;2023-06-22T21:21:48;3;3;2
75187;PMS7003;63762;51.334;22.108;2023-06-22T21:31:55;6;5;4
75187;PMS7003;63762;51.334;22.108;2023-06-22T21:42:03;11;9;6
75187;PMS7003;63762;51.334;22.108;2023-06-22T21:52:10;17;13;8
75187;PMS7003;63762;51.334;22.108;2023-06-22T22:02:17;5;3;2
75187;PMS7003;63762;51.334;22.108;2023-06-22T22:12:24;9;4;3
75187;PMS7003;63762;51.334;22.108;2023-06-22T22:22:31;7;6;4
75187;PMS7003;63762;51.334;22.108;2023-06-22T22:32:38;3;2;1
75187;PMS7003;63762;51.334;22.108;2023-06-22T22:42:45;7;7;4
75187;PMS7003;63762;51.334;22.108;2023-06-22T22:52:52;5;4;4
75187;PMS7003;63762;51.334;22.108;2023-06-22T23:03:00;4;4;2
75187;PMS7003;63762;51.334;22.108;2023-06-22T23:13:07;4;4;3
75187;PMS7003;63762;51.334;22.108;2023-06-22T23:23:14;5;5;4
75187;PMS7003;63762;51.334;22.108;2023-06-22T23:33:21;4;4;3
75187;PMS7003;63762;51.334;22.108;2023-06-22T23:43:28;2;2;1
75187;PMS7003;63762;51.334;22.108;2023-06-22T23:53:35;8;8;5
